sensor_id;sensor_type;location;lat;lon;timestamp;temperature;humidity
60469;DHT22;46316;47.582;10.238;2022-12-18T00:00:28;-3270.20;85.80
60469;DHT22;46316;47.582;10.238;2022-12-18T00:02:53;-3270.20;86.20
60469;DHT22;46316;47.582;10.238;2022-12-18T00:05:19;-3270.30;86.70
60469;DHT22;46316;47.582;10.238;2022-12-18T00:07:44;-3270.40;87.00
60469;DHT22;46316;47.582;10.238;2022-12-18T00:10:09;-3270.40;87.10
60469;DHT22;46316;47.582;10.238;2022-12-18T00:12:35;-3270.40;86.90
60469;DHT22;46316;47.582;10.238;2022-12-18T00:15:00;-3270.30;87.10
60469;DHT22;46316;47.582;10.238;2022-12-18T00:17:26;-3270.30;87.30
60469;DHT22;46316;47.582;10.238;2022-12-18T00:19:51;-3270.40;87.30
60469;DHT22;46316;47.582;10.238;2022-12-18T00:22:17;-3270.40;87.20
60469;DHT22;46316;47.582;10.238;2022-12-18T00:24:42;-3270.40;87.20
60469;DHT22;46316;47.582;10.238;2022-12-18T00:27:08;-3270.40;87.50
60469;DHT22;46316;47.582;10.238;2022-12-18T00:29:33;-3270.40;87.50
60469;DHT22;46316;47.582;10.238;2022-12-18T00:31:59;-3270.50;87.30
60469;DHT22;46316;47.582;10.238;2022-12-18T00:34:24;-3270.50;87.50
60469;DHT22;46316;47.582;10.238;2022-12-18T00:36:50;-3270.50;87.40
60469;DHT22;46316;47.582;10.238;2022-12-18T00:39:15;-3270.40;87.40
60469;DHT22;46316;47.582;10.238;2022-12-18T00:41:40;-3270.50;87.50
60469;DHT22;46316;47.582;10.238;2022-12-18T00:44:25;-3270.40;87.30
60469;DHT22;46316;47.582;10.238;2022-12-18T00:46:50;-3270.40;87.30
60469;DHT22;46316;47.582;10.238;2022-12-18T00:49:16;-3270.30;87.30
60469;DHT22;46316;47.582;10.238;2022-12-18T00:51:43;-3270.30;87.50
60469;DHT22;46316;47.582;10.238;2022-12-18T00:54:09;-3270.40;87.60
60469;DHT22;46316;47.582;10.238;2022-12-18T00:56:35;-3270.40;87.20
60469;DHT22;46316;47.582;10.238;2022-12-18T00:59:01;-3270.40;87.10
60469;DHT22;46316;47.582;10.238;2022-12-18T01:01:26;-3270.40;86.90
60469;DHT22;46316;47.582;10.238;2022-12-18T01:03:52;-3270.40;86.90
60469;DHT22;46316;47.582;10.238;2022-12-18T01:06:17;-3270.40;87.30
60469;DHT22;46316;47.582;10.238;2022-12-18T01:08:43;-3270.40;87.10
60469;DHT22;46316;47.582;10.238;2022-12-18T01:11:10;-3270.40;86.80
60469;DHT22;46316;47.582;10.238;2022-12-18T01:13:35;-3270.40;87.00
60469;DHT22;46316;47.582;10.238;2022-12-18T01:16:01;-3270.40;86.70
60469;DHT22;46316;47.582;10.238;2022-12-18T01:18:26;-3270.30;87.00
60469;DHT22;46316;47.582;10.238;2022-12-18T01:20:52;-3270.30;86.90
60469;DHT22;46316;47.582;10.238;2022-12-18T01:23:17;-3270.30;87.10
60469;DHT22;46316;47.582;10.238;2022-12-18T01:25:43;-3270.30;87.20
60469;DHT22;46316;47.582;10.238;2022-12-18T01:28:08;-3270.30;87.00
60469;DHT22;46316;47.582;10.238;2022-12-18T01:30:35;-3270.30;87.20
60469;DHT22;46316;47.582;10.238;2022-12-18T01:33:00;-3270.30;87.00
60469;DHT22;46316;47.582;10.238;2022-12-18T01:35:26;-3270.20;87.30
60469;DHT22;46316;47.582;10.238;2022-12-18T01:37:54;-3270.20;87.10
60469;DHT22;46316;47.582;10.238;2022-12-18T01:40:19;-3270.20;87.00
60469;DHT22;46316;47.582;10.238;2022-12-18T01:42:45;-3270.30;87.30
60469;DHT22;46316;47.582;10.238;2022-12-18T01:45:21;-3270.20;86.90
60469;DHT22;46316;47.582;10.238;2022-12-18T01:47:49;-3270.20;86.60
60469;DHT22;46316;47.582;10.238;2022-12-18T01:52:47;-3270.10;87.10
60469;DHT22;46316;47.582;10.238;2022-12-18T01:55:14;-3270.00;87.00
60469;DHT22;46316;47.582;10.238;2022-12-18T01:57:41;-3270.00;87.30
60469;DHT22;46316;47.582;10.238;2022-12-18T02:00:08;-3270.10;87.50
60469;DHT22;46316;47.582;10.238;2022-12-18T02:02:34;-3270.00;87.40
60469;DHT22;46316;47.582;10.238;2022-12-18T02:05:00;-3270.00;87.50
60469;DHT22;46316;47.582;10.238;2022-12-18T02:10:06;-3270.00;87.80
60469;DHT22;46316;47.582;10.238;2022-12-18T02:12:35;-3270.10;87.90
60469;DHT22;46316;47.582;10.238;2022-12-18T02:17:34;-3270.00;87.20
60469;DHT22;46316;47.582;10.238;2022-12-18T02:20:05;-3269.90;87.20
60469;DHT22;46316;47.582;10.238;2022-12-18T02:25:03;-3269.80;87.00
60469;DHT22;46316;47.582;10.238;2022-12-18T02:27:32;-3269.90;86.80
60469;DHT22;46316;47.582;10.238;2022-12-18T02:29:58;-3269.80;86.20
60469;DHT22;46316;47.582;10.238;2022-12-18T02:32:28;-3269.80;86.10
60469;DHT22;46316;47.582;10.238;2022-12-18T02:34:56;-3269.80;86.30
60469;DHT22;46316;47.582;10.238;2022-12-18T02:37:22;-3269.80;86.20
60469;DHT22;46316;47.582;10.238;2022-12-18T02:39:48;-3269.80;86.40
60469;DHT22;46316;47.582;10.238;2022-12-18T02:42:14;-3269.80;86.20
60469;DHT22;46316;47.582;10.238;2022-12-18T02:44:43;-3269.60;86.30
60469;DHT22;46316;47.582;10.238;2022-12-18T02:47:10;-3269.60;85.80
60469;DHT22;46316;47.582;10.238;2022-12-18T02:49:47;-3269.60;86.30
60469;DHT22;46316;47.582;10.238;2022-12-18T03:02:54;-3269.40;85.00
60469;DHT22;46316;47.582;10.238;2022-12-18T03:05:25;-3269.30;84.90
60469;DHT22;46316;47.582;10.238;2022-12-18T03:07:59;-3269.30;85.20
60469;DHT22;46316;47.582;10.238;2022-12-18T03:10:28;-3269.30;84.80
60469;DHT22;46316;47.582;10.238;2022-12-18T03:13:04;-3269.00;84.50
60469;DHT22;46316;47.582;10.238;2022-12-18T03:15:35;-3269.00;85.20
60469;DHT22;46316;47.582;10.238;2022-12-18T03:18:03;-3269.00;85.40
60469;DHT22;46316;47.582;10.238;2022-12-18T03:20:30;-3269.00;85.20
60469;DHT22;46316;47.582;10.238;2022-12-18T03:22:59;-3269.00;85.70
60469;DHT22;46316;47.582;10.238;2022-12-18T03:25:26;-3269.00;86.00
60469;DHT22;46316;47.582;10.238;2022-12-18T03:27:54;-3269.10;86.10
60469;DHT22;46316;47.582;10.238;2022-12-18T03:30:20;-3269.00;86.10
60469;DHT22;46316;47.582;10.238;2022-12-18T03:32:50;-3269.00;86.30
60469;DHT22;46316;47.582;10.238;2022-12-18T03:35:22;-3269.00;86.20
60469;DHT22;46316;47.582;10.238;2022-12-18T03:37:48;-3268.90;86.10
60469;DHT22;46316;47.582;10.238;2022-12-18T03:40:13;-3268.90;86.50
60469;DHT22;46316;47.582;10.238;2022-12-18T03:42:43;-3268.90;86.60
60469;DHT22;46316;47.582;10.238;2022-12-18T03:48:01;-3268.80;86.40
60469;DHT22;46316;47.582;10.238;2022-12-18T03:52:59;-3268.60;85.80
60469;DHT22;46316;47.582;10.238;2022-12-18T03:55:26;-3268.60;85.70
60469;DHT22;46316;47.582;10.238;2022-12-18T03:57:53;-3268.40;85.60
60469;DHT22;46316;47.582;10.238;2022-12-18T04:00:19;-3268.30;85.60
60469;DHT22;46316;47.582;10.238;2022-12-18T04:02:46;-3268.30;86.20
60469;DHT22;46316;47.582;10.238;2022-12-18T04:05:13;-3268.20;86.00
60469;DHT22;46316;47.582;10.238;2022-12-18T04:07:39;-3268.10;85.90
60469;DHT22;46316;47.582;10.238;2022-12-18T04:10:05;-3268.00;85.60
60469;DHT22;46316;47.582;10.238;2022-12-18T04:12:31;-3268.00;86.20
60469;DHT22;46316;47.582;10.238;2022-12-18T04:14:57;-3267.90;86.00
60469;DHT22;46316;47.582;10.238;2022-12-18T04:17:22;-3267.80;86.20
60469;DHT22;46316;47.582;10.238;2022-12-18T04:19:49;-3267.80;86.60
60469;DHT22;46316;47.582;10.238;2022-12-18T04:22:14;-3267.70;86.50
60469;DHT22;46316;47.582;10.238;2022-12-18T04:24:40;-3267.70;86.60
60469;DHT22;46316;47.582;10.238;2022-12-18T04:27:05;-3267.60;86.10
60469;DHT22;46316;47.582;10.238;2022-12-18T04:29:31;-3267.70;86.40
60469;DHT22;46316;47.582;10.238;2022-12-18T04:31:56;-3267.60;86.00
60469;DHT22;46316;47.582;10.238;2022-12-18T04:34:21;-3267.60;86.10
60469;DHT22;46316;47.582;10.238;2022-12-18T04:36:47;-3267.50;85.80
60469;DHT22;46316;47.582;10.238;2022-12-18T04:39:13;-3267.50;85.70
60469;DHT22;46316;47.582;10.238;2022-12-18T04:41:39;-3267.40;85.80
60469;DHT22;46316;47.582;10.238;2022-12-18T04:44:04;-3267.30;85.60
60469;DHT22;46316;47.582;10.238;2022-12-18T04:46:30;-3267.30;85.70
60469;DHT22;46316;47.582;10.238;2022-12-18T04:48:55;-3267.30;85.80
60469;DHT22;46316;47.582;10.238;2022-12-18T04:51:21;-3267.30;85.90
60469;DHT22;46316;47.582;10.238;2022-12-18T04:53:46;-3267.30;85.50
60469;DHT22;46316;47.582;10.238;2022-12-18T04:56:12;-3267.30;85.10
60469;DHT22;46316;47.582;10.238;2022-12-18T04:58:39;-3267.20;84.30
60469;DHT22;46316;47.582;10.238;2022-12-18T05:01:05;-3267.20;84.10
60469;DHT22;46316;47.582;10.238;2022-12-18T05:03:31;-3267.10;83.90
60469;DHT22;46316;47.582;10.238;2022-12-18T05:05:56;-3267.10;83.90
60469;DHT22;46316;47.582;10.238;2022-12-18T05:08:22;-3267.10;84.10
60469;DHT22;46316;47.582;10.238;2022-12-18T05:10:48;-3267.10;84.10
60469;DHT22;46316;47.582;10.238;2022-12-18T05:13:14;-3267.00;83.70
60469;DHT22;46316;47.582;10.238;2022-12-18T05:15:39;-3266.90;83.50
60469;DHT22;46316;47.582;10.238;2022-12-18T05:18:05;-3266.90;83.50
60469;DHT22;46316;47.582;10.238;2022-12-18T05:20:30;-3266.90;83.50
60469;DHT22;46316;47.582;10.238;2022-12-18T05:22:56;-3266.80;83.20
60469;DHT22;46316;47.582;10.238;2022-12-18T05:25:22;-3266.70;83.20
60469;DHT22;46316;47.582;10.238;2022-12-18T05:27:47;-3266.70;83.50
60469;DHT22;46316;47.582;10.238;2022-12-18T05:30:13;-3266.70;83.40
60469;DHT22;46316;47.582;10.238;2022-12-18T05:32:39;-3266.70;83.50
60469;DHT22;46316;47.582;10.238;2022-12-18T05:35:05;-3266.70;83.90
60469;DHT22;46316;47.582;10.238;2022-12-18T05:37:31;-3266.70;83.60
60469;DHT22;46316;47.582;10.238;2022-12-18T05:39:56;-3266.80;83.90
60469;DHT22;46316;47.582;10.238;2022-12-18T05:42:22;-3266.80;83.50
60469;DHT22;46316;47.582;10.238;2022-12-18T05:44:47;-3266.80;83.00
60469;DHT22;46316;47.582;10.238;2022-12-18T05:47:13;-3266.70;83.00
60469;DHT22;46316;47.582;10.238;2022-12-18T05:49:38;-3266.70;83.80
60469;DHT22;46316;47.582;10.238;2022-12-18T05:52:03;-3266.70;84.00
60469;DHT22;46316;47.582;10.238;2022-12-18T05:54:29;-3266.60;83.40
60469;DHT22;46316;47.582;10.238;2022-12-18T05:56:54;-3266.60;83.00
60469;DHT22;46316;47.582;10.238;2022-12-18T05:59:20;-3266.50;83.10
60469;DHT22;46316;47.582;10.238;2022-12-18T06:01:46;-3266.40;82.50
60469;DHT22;46316;47.582;10.238;2022-12-18T06:04:12;-3266.30;82.50
60469;DHT22;46316;47.582;10.238;2022-12-18T06:06:37;-3266.20;82.30
60469;DHT22;46316;47.582;10.238;2022-12-18T06:09:03;-3266.10;82.70
60469;DHT22;46316;47.582;10.238;2022-12-18T06:11:33;-3266.00;82.70
60469;DHT22;46316;47.582;10.238;2022-12-18T06:13:59;-3265.90;83.00
60469;DHT22;46316;47.582;10.238;2022-12-18T06:16:25;-3265.80;83.40
60469;DHT22;46316;47.582;10.238;2022-12-18T06:18:51;-3265.80;83.50
60469;DHT22;46316;47.582;10.238;2022-12-18T06:21:16;-3265.80;84.20
60469;DHT22;46316;47.582;10.238;2022-12-18T06:23:42;-3265.90;84.40
60469;DHT22;46316;47.582;10.238;2022-12-18T06:26:08;-3265.80;83.90
60469;DHT22;46316;47.582;10.238;2022-12-18T06:28:34;-3265.80;83.80
60469;DHT22;46316;47.582;10.238;2022-12-18T06:31:00;-3265.90;84.10
60469;DHT22;46316;47.582;10.238;2022-12-18T06:33:28;-3265.90;84.30
60469;DHT22;46316;47.582;10.238;2022-12-18T06:35:54;-3265.90;84.00
60469;DHT22;46316;47.582;10.238;2022-12-18T06:38:19;-3265.90;84.00
60469;DHT22;46316;47.582;10.238;2022-12-18T06:40:45;-3265.90;83.70
60469;DHT22;46316;47.582;10.238;2022-12-18T06:43:10;-3265.90;83.80
60469;DHT22;46316;47.582;10.238;2022-12-18T06:45:36;-3265.90;84.00
60469;DHT22;46316;47.582;10.238;2022-12-18T06:48:01;-3265.90;83.90
60469;DHT22;46316;47.582;10.238;2022-12-18T06:50:27;-3265.90;83.60
60469;DHT22;46316;47.582;10.238;2022-12-18T06:52:53;-3265.90;83.70
60469;DHT22;46316;47.582;10.238;2022-12-18T06:55:18;-3265.90;83.90
60469;DHT22;46316;47.582;10.238;2022-12-18T06:57:43;-3265.90;83.70
60469;DHT22;46316;47.582;10.238;2022-12-18T07:00:09;-3265.80;83.80
60469;DHT22;46316;47.582;10.238;2022-12-18T07:02:35;-3265.80;83.60
60469;DHT22;46316;47.582;10.238;2022-12-18T07:05:00;-3265.80;83.20
60469;DHT22;46316;47.582;10.238;2022-12-18T07:07:26;-3265.80;83.60
60469;DHT22;46316;47.582;10.238;2022-12-18T07:09:51;-3265.80;83.60
60469;DHT22;46316;47.582;10.238;2022-12-18T07:12:17;-3265.80;83.80
60469;DHT22;46316;47.582;10.238;2022-12-18T07:14:42;-3265.80;83.70
60469;DHT22;46316;47.582;10.238;2022-12-18T07:17:08;-3265.80;83.60
60469;DHT22;46316;47.582;10.238;2022-12-18T07:19:33;-3265.90;83.60
60469;DHT22;46316;47.582;10.238;2022-12-18T07:21:59;-3265.80;83.20
60469;DHT22;46316;47.582;10.238;2022-12-18T07:24:24;-3265.90;83.20
60469;DHT22;46316;47.582;10.238;2022-12-18T07:26:50;-3265.90;83.40
60469;DHT22;46316;47.582;10.238;2022-12-18T07:29:15;-3265.90;83.30
60469;DHT22;46316;47.582;10.238;2022-12-18T07:31:41;-3265.90;83.20
60469;DHT22;46316;47.582;10.238;2022-12-18T07:34:09;-3265.90;83.00
60469;DHT22;46316;47.582;10.238;2022-12-18T07:36:35;-3265.90;83.10
60469;DHT22;46316;47.582;10.238;2022-12-18T07:39:00;-3265.90;83.20
60469;DHT22;46316;47.582;10.238;2022-12-18T07:41:26;-3265.90;82.40
60469;DHT22;46316;47.582;10.238;2022-12-18T07:43:51;-3265.90;82.70
60469;DHT22;46316;47.582;10.238;2022-12-18T07:46:17;-3266.00;82.80
60469;DHT22;46316;47.582;10.238;2022-12-18T07:48:42;-3266.00;82.70
60469;DHT22;46316;47.582;10.238;2022-12-18T07:51:08;-3266.10;82.80
60469;DHT22;46316;47.582;10.238;2022-12-18T07:53:37;-3266.10;82.80
60469;DHT22;46316;47.582;10.238;2022-12-18T07:56:04;-3266.10;82.50
60469;DHT22;46316;47.582;10.238;2022-12-18T07:58:30;-3266.20;82.60
60469;DHT22;46316;47.582;10.238;2022-12-18T08:01:03;-3266.30;82.70
60469;DHT22;46316;47.582;10.238;2022-12-18T08:03:29;-3266.30;82.60
60469;DHT22;46316;47.582;10.238;2022-12-18T08:05:58;-3266.30;83.00
60469;DHT22;46316;47.582;10.238;2022-12-18T08:08:23;-3266.40;82.70
60469;DHT22;46316;47.582;10.238;2022-12-18T08:10:48;-3266.40;82.50
60469;DHT22;46316;47.582;10.238;2022-12-18T08:13:14;-3266.50;82.50
60469;DHT22;46316;47.582;10.238;2022-12-18T08:15:39;-3266.50;82.80
60469;DHT22;46316;47.582;10.238;2022-12-18T08:18:05;-3266.70;83.20
60469;DHT22;46316;47.582;10.238;2022-12-18T08:20:30;-3266.80;83.20
60469;DHT22;46316;47.582;10.238;2022-12-18T08:22:56;-3266.90;82.90
60469;DHT22;46316;47.582;10.238;2022-12-18T08:25:23;-3266.90;82.30
60469;DHT22;46316;47.582;10.238;2022-12-18T08:27:48;-3267.00;82.10
60469;DHT22;46316;47.582;10.238;2022-12-18T08:30:14;-3267.00;81.50
60469;DHT22;46316;47.582;10.238;2022-12-18T08:32:39;-3267.00;81.50
60469;DHT22;46316;47.582;10.238;2022-12-18T08:35:05;-3267.00;81.40
60469;DHT22;46316;47.582;10.238;2022-12-18T08:37:31;-3267.00;81.60
60469;DHT22;46316;47.582;10.238;2022-12-18T08:39:56;-3267.00;81.70
60469;DHT22;46316;47.582;10.238;2022-12-18T08:42:22;-3267.10;81.70
60469;DHT22;46316;47.582;10.238;2022-12-18T08:45:06;-3267.10;81.60
60469;DHT22;46316;47.582;10.238;2022-12-18T08:47:31;-3267.10;81.80
60469;DHT22;46316;47.582;10.238;2022-12-18T08:49:57;-3267.20;81.80
60469;DHT22;46316;47.582;10.238;2022-12-18T08:52:22;-3267.20;81.60
60469;DHT22;46316;47.582;10.238;2022-12-18T08:54:48;-3267.30;81.50
60469;DHT22;46316;47.582;10.238;2022-12-18T08:57:13;-3267.30;81.50
60469;DHT22;46316;47.582;10.238;2022-12-18T08:59:39;-3267.30;81.60
60469;DHT22;46316;47.582;10.238;2022-12-18T09:02:04;-3267.40;81.80
60469;DHT22;46316;47.582;10.238;2022-12-18T09:04:30;-3267.40;81.40
60469;DHT22;46316;47.582;10.238;2022-12-18T09:06:55;-3267.50;81.80
60469;DHT22;46316;47.582;10.238;2022-12-18T09:09:21;-3267.60;81.70
60469;DHT22;46316;47.582;10.238;2022-12-18T09:11:46;-3267.60;81.50
60469;DHT22;46316;47.582;10.238;2022-12-18T09:14:12;-3267.70;81.40
60469;DHT22;46316;47.582;10.238;2022-12-18T09:16:37;-3267.80;81.20
60469;DHT22;46316;47.582;10.238;2022-12-18T09:19:03;-3267.80;81.00
60469;DHT22;46316;47.582;10.238;2022-12-18T09:21:34;-3267.90;80.80
60469;DHT22;46316;47.582;10.238;2022-12-18T09:24:00;-3268.00;81.10
60469;DHT22;46316;47.582;10.238;2022-12-18T09:26:25;-3268.40;81.60
60469;DHT22;46316;47.582;10.238;2022-12-18T09:28:51;-3269.30;81.50
60469;DHT22;46316;47.582;10.238;2022-12-18T09:31:19;-3270.50;79.60
60469;DHT22;46316;47.582;10.238;2022-12-18T09:33:44;-3271.60;74.80
60469;DHT22;46316;47.582;10.238;2022-12-18T09:36:14;-3272.70;70.00
60469;DHT22;46316;47.582;10.238;2022-12-18T09:38:39;-3273.50;67.40
60469;DHT22;46316;47.582;10.238;2022-12-18T09:43:49;-3274.70;61.40
60469;DHT22;46316;47.582;10.238;2022-12-18T09:46:17;-3275.30;61.00
60469;DHT22;46316;47.582;10.238;2022-12-18T09:48:46;-3275.60;59.50
60469;DHT22;46316;47.582;10.238;2022-12-18T09:51:14;-3275.70;58.50
60469;DHT22;46316;47.582;10.238;2022-12-18T09:53:41;-3276.20;57.50
60469;DHT22;46316;47.582;10.238;2022-12-18T09:56:12;-3276.30;56.30
60469;DHT22;46316;47.582;10.238;2022-12-18T09:58:46;-3276.40;57.40
60469;DHT22;46316;47.582;10.238;2022-12-18T10:01:22;-3276.70;57.20
60469;DHT22;46316;47.582;10.238;2022-12-18T10:03:49;-3276.60;55.60
60469;DHT22;46316;47.582;10.238;2022-12-18T10:13:57;-3276.50;55.70
60469;DHT22;46316;47.582;10.238;2022-12-18T10:16:43;-3276.70;55.80
60469;DHT22;46316;47.582;10.238;2022-12-18T10:21:59;-3276.60;56.20
60469;DHT22;46316;47.582;10.238;2022-12-18T10:26:52;-3276.50;57.30
60469;DHT22;46316;47.582;10.238;2022-12-18T10:29:19;-3276.30;56.90
60469;DHT22;46316;47.582;10.238;2022-12-18T10:31:45;-3276.30;57.70
60469;DHT22;46316;47.582;10.238;2022-12-18T10:34:11;-3276.10;58.00
60469;DHT22;46316;47.582;10.238;2022-12-18T10:36:36;-3276.00;58.90
60469;DHT22;46316;47.582;10.238;2022-12-18T10:41:43;-3275.90;59.90
60469;DHT22;46316;47.582;10.238;2022-12-18T10:44:16;-3276.00;58.60
60469;DHT22;46316;47.582;10.238;2022-12-18T10:46:44;-3275.80;59.40
60469;DHT22;46316;47.582;10.238;2022-12-18T10:49:21;-3275.90;58.50
60469;DHT22;46316;47.582;10.238;2022-12-18T10:51:47;-3276.00;59.00
60469;DHT22;46316;47.582;10.238;2022-12-18T10:54:17;-3275.80;59.30
60469;DHT22;46316;47.582;10.238;2022-12-18T10:56:43;-3275.50;60.10
60469;DHT22;46316;47.582;10.238;2022-12-18T10:59:10;-3275.70;61.20
60469;DHT22;46316;47.582;10.238;2022-12-18T11:01:53;-3275.60;61.70
60469;DHT22;46316;47.582;10.238;2022-12-18T11:04:21;-3275.50;62.20
60469;DHT22;46316;47.582;10.238;2022-12-18T11:07:00;-3275.50;63.00
60469;DHT22;46316;47.582;10.238;2022-12-18T11:09:30;-3275.50;63.80
60469;DHT22;46316;47.582;10.238;2022-12-18T11:11:58;-3275.50;64.50
60469;DHT22;46316;47.582;10.238;2022-12-18T11:14:34;-3275.40;65.10
60469;DHT22;46316;47.582;10.238;2022-12-18T11:17:17;-3275.40;65.40
60469;DHT22;46316;47.582;10.238;2022-12-18T11:19:43;-3275.30;65.80
60469;DHT22;46316;47.582;10.238;2022-12-18T11:22:19;-3275.20;66.60
60469;DHT22;46316;47.582;10.238;2022-12-18T11:24:52;-3275.00;67.50
60469;DHT22;46316;47.582;10.238;2022-12-18T11:27:18;-3275.10;67.90
60469;DHT22;46316;47.582;10.238;2022-12-18T11:29:43;-3275.00;68.30
60469;DHT22;46316;47.582;10.238;2022-12-18T11:34:59;-3274.80;68.50
60469;DHT22;46316;47.582;10.238;2022-12-18T11:37:26;-3274.50;69.40
60469;DHT22;46316;47.582;10.238;2022-12-18T11:42:24;-3274.60;70.00
60469;DHT22;46316;47.582;10.238;2022-12-18T11:45:04;-3274.50;70.50
60469;DHT22;46316;47.582;10.238;2022-12-18T11:50:17;-3274.60;70.50
60469;DHT22;46316;47.582;10.238;2022-12-18T11:52:43;-3274.70;70.40
60469;DHT22;46316;47.582;10.238;2022-12-18T11:55:13;-3274.80;70.70
60469;DHT22;46316;47.582;10.238;2022-12-18T12:00:12;-3274.80;70.50
60469;DHT22;46316;47.582;10.238;2022-12-18T12:16:10;-3274.50;72.20
60469;DHT22;46316;47.582;10.238;2022-12-18T12:18:55;-3274.60;73.10
60469;DHT22;46316;47.582;10.238;2022-12-18T12:21:34;-3274.60;73.40
60469;DHT22;46316;47.582;10.238;2022-12-18T12:26:45;-3274.80;73.30
60469;DHT22;46316;47.582;10.238;2022-12-18T12:31:47;-3274.90;73.20
60469;DHT22;46316;47.582;10.238;2022-12-18T12:39:46;-3274.80;73.50
60469;DHT22;46316;47.582;10.238;2022-12-18T12:42:15;-3274.70;74.60
60469;DHT22;46316;47.582;10.238;2022-12-18T12:45:02;-3274.80;74.60
60469;DHT22;46316;47.582;10.238;2022-12-18T12:47:34;-3274.80;73.90
60469;DHT22;46316;47.582;10.238;2022-12-18T12:50:02;-3274.90;73.80
60469;DHT22;46316;47.582;10.238;2022-12-18T12:52:35;-3274.90;73.90
60469;DHT22;46316;47.582;10.238;2022-12-18T12:55:04;-3274.80;74.40
60469;DHT22;46316;47.582;10.238;2022-12-18T12:57:37;-3274.80;74.60
60469;DHT22;46316;47.582;10.238;2022-12-18T13:02:35;-3274.80;75.40
60469;DHT22;46316;47.582;10.238;2022-12-18T13:07:39;-3274.80;75.90
60469;DHT22;46316;47.582;10.238;2022-12-18T13:15:46;-3274.80;76.70
60469;DHT22;46316;47.582;10.238;2022-12-18T13:18:18;-3274.60;76.80
60469;DHT22;46316;47.582;10.238;2022-12-18T13:31:03;-3274.50;77.10
60469;DHT22;46316;47.582;10.238;2022-12-18T13:45:50;-3274.50;78.10
60469;DHT22;46316;47.582;10.238;2022-12-18T13:48:24;-3274.40;78.10
60469;DHT22;46316;47.582;10.238;2022-12-18T13:50:55;-3274.40;78.30
60469;DHT22;46316;47.582;10.238;2022-12-18T13:53:23;-3274.30;78.60
60469;DHT22;46316;47.582;10.238;2022-12-18T13:55:50;-3274.30;78.80
60469;DHT22;46316;47.582;10.238;2022-12-18T13:58:16;-3274.30;78.70
60469;DHT22;46316;47.582;10.238;2022-12-18T14:00:42;-3274.30;78.80
60469;DHT22;46316;47.582;10.238;2022-12-18T14:03:22;-3274.30;78.70
60469;DHT22;46316;47.582;10.238;2022-12-18T14:05:52;-3274.30;78.80
60469;DHT22;46316;47.582;10.238;2022-12-18T14:08:18;-3274.20;79.30
60469;DHT22;46316;47.582;10.238;2022-12-18T14:10:47;-3274.20;79.60
60469;DHT22;46316;47.582;10.238;2022-12-18T14:13:33;-3274.10;80.50
60469;DHT22;46316;47.582;10.238;2022-12-18T14:16:03;-3274.10;80.80
60469;DHT22;46316;47.582;10.238;2022-12-18T14:19:11;-3274.00;81.20
60469;DHT22;46316;47.582;10.238;2022-12-18T14:21:18;-3274.00;81.20
60469;DHT22;46316;47.582;10.238;2022-12-18T14:23:45;-3273.90;81.10
60469;DHT22;46316;47.582;10.238;2022-12-18T14:26:29;-3273.90;81.30
60469;DHT22;46316;47.582;10.238;2022-12-18T14:28:56;-3273.80;81.60
60469;DHT22;46316;47.582;10.238;2022-12-18T14:31:23;-3273.80;81.90
60469;DHT22;46316;47.582;10.238;2022-12-18T14:33:48;-3273.70;82.00
60469;DHT22;46316;47.582;10.238;2022-12-18T14:36:16;-3273.60;82.30
60469;DHT22;46316;47.582;10.238;2022-12-18T14:38:42;-3273.60;82.70
60469;DHT22;46316;47.582;10.238;2022-12-18T14:41:14;-3273.50;82.70
60469;DHT22;46316;47.582;10.238;2022-12-18T14:43:41;-3273.40;82.80
60469;DHT22;46316;47.582;10.238;2022-12-18T14:48:52;-3273.30;83.00
60469;DHT22;46316;47.582;10.238;2022-12-18T14:53:47;-3273.10;83.30
60469;DHT22;46316;47.582;10.238;2022-12-18T14:58:38;-3272.90;83.60
60469;DHT22;46316;47.582;10.238;2022-12-18T15:01:04;-3272.80;83.70
60469;DHT22;46316;47.582;10.238;2022-12-18T15:03:30;-3272.80;83.70
60469;DHT22;46316;47.582;10.238;2022-12-18T15:05:56;-3272.80;83.90
60469;DHT22;46316;47.582;10.238;2022-12-18T15:08:39;-3272.70;84.20
60469;DHT22;46316;47.582;10.238;2022-12-18T15:11:22;-3272.60;84.30
60469;DHT22;46316;47.582;10.238;2022-12-18T15:13:50;-3272.50;84.20
60469;DHT22;46316;47.582;10.238;2022-12-18T15:16:15;-3272.30;84.50
60469;DHT22;46316;47.582;10.238;2022-12-18T15:18:41;-3272.20;84.70
60469;DHT22;46316;47.582;10.238;2022-12-18T15:21:08;-3272.10;85.00
60469;DHT22;46316;47.582;10.238;2022-12-18T15:23:45;-3272.00;85.00
60469;DHT22;46316;47.582;10.238;2022-12-18T15:26:12;-3271.90;85.20
60469;DHT22;46316;47.582;10.238;2022-12-18T15:33:36;-3271.80;85.80
60469;DHT22;46316;47.582;10.238;2022-12-18T15:36:03;-3271.60;85.80
60469;DHT22;46316;47.582;10.238;2022-12-18T15:38:29;-3271.60;86.10
60469;DHT22;46316;47.582;10.238;2022-12-18T15:40:55;-3271.50;86.40
60469;DHT22;46316;47.582;10.238;2022-12-18T15:43:21;-3271.40;86.50
60469;DHT22;46316;47.582;10.238;2022-12-18T15:45:59;-3271.40;86.60
60469;DHT22;46316;47.582;10.238;2022-12-18T15:48:25;-3271.30;86.70
60469;DHT22;46316;47.582;10.238;2022-12-18T15:50:50;-3271.20;86.80
60469;DHT22;46316;47.582;10.238;2022-12-18T15:53:18;-3271.20;86.90
60469;DHT22;46316;47.582;10.238;2022-12-18T15:55:44;-3271.10;87.00
60469;DHT22;46316;47.582;10.238;2022-12-18T15:58:28;-3271.10;87.20
60469;DHT22;46316;47.582;10.238;2022-12-18T16:00:53;-3271.10;87.20
